Time;durP1;ratioP1;P1;durP2;ratioP2;P2;SDS_P1;SDS_P2;PMS_P1;PMS_P2;Temp;Humidity;BMP_temperature;BMP_pressure;BME280_temperature;BME280_humidity;BME280_pressure;Samples;Min_cycle;Max_cycle;Signal;HPM_P1;HPM_P2
2023/12/29 00:02:21;;;;;;;70.47;50.17;;;9.40;99.90;;;;;;6124484;23;20016;-80
2023/12/29 00:04:47;;;;;;;65.87;48.40;;;9.40;99.90;;;;;;6124203;23;20030;-81
2023/12/29 00:07:57;;;;;;;70.23;52.20;;;9.40;99.90;;;;;;6123736;23;20110;-80
2023/12/29 00:13:49;;;;;;;69.53;50.97;;;9.40;99.90;;;;;;6124591;23;20017;-81
2023/12/29 00:16:16;;;;;;;69.97;52.03;;;9.40;99.90;;;;;;6124487;23;20363;-82
2023/12/29 00:18:42;;;;;;;69.23;50.47;;;9.40;99.90;;;;;;6223100;23;20010;-80
2023/12/29 00:21:08;;;;;;;66.17;49.37;;;9.40;99.90;;;;;;6245918;23;20010;-79
2023/12/29 00:23:33;;;;;;;72.80;52.50;;;9.40;99.90;;;;;;6246350;23;20425;-80
2023/12/29 00:25:59;;;;;;;76.30;52.00;;;9.40;99.90;;;;;;6246552;23;20007;-79
2023/12/29 00:28:25;;;;;;;67.77;49.17;;;9.40;99.90;;;;;;6246543;23;19996;-82
2023/12/29 00:30:51;;;;;;;64.40;48.10;;;9.40;99.90;;;;;;6245958;23;20027;-82
2023/12/29 00:33:16;;;;;;;67.10;50.30;;;9.40;99.90;;;;;;6246356;23;20054;-81
2023/12/29 00:35:42;;;;;;;67.83;49.53;;;9.40;99.90;;;;;;6246222;23;20004;-83
2023/12/29 00:38:08;;;;;;;71.73;51.33;;;9.40;99.90;;;;;;6246379;23;20008;-82
2023/12/29 00:40:34;;;;;;;72.43;50.90;;;9.30;99.90;;;;;;6246092;23;20004;-82
2023/12/29 00:43:01;;;;;;;66.83;49.43;;;9.40;99.90;;;;;;6246191;23;20000;-82
2023/12/29 00:45:32;;;;;;;67.10;48.87;;;9.40;99.90;;;;;;6246375;23;20008;-81
2023/12/29 00:47:59;;;;;;;70.73;47.83;;;9.30;99.90;;;;;;6246538;23;20476;-82
2023/12/29 00:50:26;;;;;;;66.10;48.57;;;9.40;99.90;;;;;;6246654;23;20008;-71
2023/12/29 00:52:52;;;;;;;68.20;47.13;;;9.40;99.90;;;;;;6246279;23;20004;-73
2023/12/29 00:55:19;;;;;;;66.93;49.57;;;9.40;99.90;;;;;;6246065;23;20083;-71
2023/12/29 00:57:45;;;;;;;70.53;50.80;;;9.40;99.90;;;;;;6245983;23;20001;-72
2023/12/29 01:00:12;;;;;;;72.60;50.60;;;9.40;99.90;;;;;;6245555;23;20095;-72
2023/12/29 01:02:41;;;;;;;65.57;50.27;;;9.30;99.90;;;;;;6246035;23;19998;-72
2023/12/29 01:05:07;;;;;;;68.57;50.87;;;9.30;99.90;;;;;;6246060;23;20008;-73
2023/12/29 01:07:33;;;;;;;70.53;54.10;;;9.30;99.90;;;;;;6245699;23;20330;-72
2023/12/29 01:09:59;;;;;;;73.67;53.47;;;9.30;99.90;;;;;;6246555;23;20453;-82
2023/12/29 01:12:25;;;;;;;70.00;51.37;;;9.30;99.90;;;;;;6246348;23;20000;-82
2023/12/29 01:14:51;;;;;;;70.63;52.23;;;9.30;99.90;;;;;;6246483;23;20023;-83
2023/12/29 01:17:17;;;;;;;72.30;51.83;;;9.30;99.90;;;;;;6246910;23;20469;-81
2023/12/29 01:29:43;;;;;;;70.73;52.53;;;9.30;99.90;;;;;;6245524;23;20054;-82
2023/12/29 01:49:26;;;;;;;74.13;56.07;;;9.20;99.90;;;;;;6085164;23;20137;-83
2023/12/29 01:51:57;;;;;;;76.07;55.10;;;9.20;99.90;;;;;;6215499;23;20008;-82
2023/12/29 01:54:26;;;;;;;76.03;56.63;;;9.20;99.90;;;;;;6215528;23;20520;-83
2023/12/29 01:56:57;;;;;;;80.97;57.77;;;9.20;99.90;;;;;;6215669;23;20301;-81
2023/12/29 01:59:25;;;;;;;78.43;56.93;;;9.20;99.90;;;;;;6211693;23;20012;-82
2023/12/29 02:01:51;;;;;;;84.13;58.00;;;9.20;99.90;;;;;;6212095;23;20001;-82
2023/12/29 02:04:18;;;;;;;81.37;59.50;;;9.10;99.90;;;;;;6213020;23;20080;-83
2023/12/29 02:06:44;;;;;;;81.13;58.47;;;9.10;99.90;;;;;;6214575;23;20359;-83
2023/12/29 02:09:12;;;;;;;77.63;56.03;;;9.10;99.90;;;;;;6215185;23;20000;-81
2023/12/29 02:11:38;;;;;;;81.67;58.30;;;9.10;99.90;;;;;;6215435;23;20019;-83
2023/12/29 02:14:05;;;;;;;73.27;56.57;;;9.10;99.90;;;;;;6214750;23;20028;-82
2023/12/29 02:16:59;;;;;;;77.93;56.83;;;9.10;99.90;;;;;;6215483;23;20412;-83
2023/12/29 02:19:40;;;;;;;77.03;55.67;;;9.10;99.90;;;;;;6215235;23;20008;-80
2023/12/29 02:22:07;;;;;;;79.20;56.83;;;9.10;99.90;;;;;;6214846;23;20139;-82
2023/12/29 02:24:35;;;;;;;77.80;56.97;;;9.10;99.90;;;;;;6215396;23;20424;-80
2023/12/29 02:27:23;;;;;;;75.93;54.50;;;9.10;99.90;;;;;;6215159;23;20414;-82
2023/12/29 02:30:13;;;;;;;74.57;55.07;;;9.10;99.90;;;;;;6215519;23;20017;-81
2023/12/29 02:32:43;;;;;;;76.53;54.93;;;9.10;99.90;;;;;;6245215;23;20504;-82
2023/12/29 02:35:18;;;;;;;74.07;55.50;;;9.20;99.90;;;;;;6245122;23;20427;-82
2023/12/29 02:37:44;;;;;;;76.87;56.33;;;9.20;99.90;;;;;;6244935;23;20405;-81
2023/12/29 02:40:11;;;;;;;76.70;58.23;;;9.20;99.90;;;;;;6245272;23;20008;-82
2023/12/29 02:42:37;;;;;;;76.23;56.03;;;9.10;99.90;;;;;;6245077;23;20514;-82
2023/12/29 02:45:03;;;;;;;76.30;55.20;;;9.10;99.90;;;;;;6218178;23;20035;-83
2023/12/29 02:47:29;;;;;;;75.73;56.87;;;9.10;99.90;;;;;;6245591;23;20449;-83
2023/12/29 02:49:55;;;;;;;76.10;57.40;;;9.20;99.90;;;;;;6245937;23;20012;-82
2023/12/29 02:52:20;;;;;;;80.17;56.40;;;9.10;99.90;;;;;;6246078;23;20000;-83
2023/12/29 02:54:49;;;;;;;80.27;56.37;;;9.10;99.90;;;;;;6245735;23;20000;-83
2023/12/29 02:57:21;;;;;;;79.60;57.73;;;9.10;99.90;;;;;;6245742;23;20000;-82
2023/12/29 03:07:15;;;;;;;76.30;57.33;;;9.10;99.90;;;;;;6152806;23;20040;-82
2023/12/29 03:20:23;;;;;;;83.90;59.30;;;9.10;99.90;;;;;;6064589;23;20113;-82
2023/12/29 03:23:29;;;;;;;82.03;58.27;;;9.10;99.90;;;;;;6064918;23;20432;-83
2023/12/29 03:25:54;;;;;;;78.37;57.70;;;9.00;99.90;;;;;;6099009;22;20487;-83
2023/12/29 03:28:20;;;;;;;81.37;55.83;;;9.00;99.90;;;;;;6275888;22;20035;-82
2023/12/29 03:30:46;;;;;;;80.60;57.57;;;9.00;99.90;;;;;;6248872;22;20011;-82
2023/12/29 03:33:12;;;;;;;74.23;55.47;;;9.00;99.90;;;;;;6277781;22;20351;-82
2023/12/29 03:35:38;;;;;;;78.87;57.77;;;9.00;99.90;;;;;;6277496;22;20030;-79
2023/12/29 03:38:04;;;;;;;75.83;55.87;;;9.00;99.90;;;;;;6277446;22;20000;-80
2023/12/29 03:40:29;;;;;;;71.50;54.83;;;8.90;99.90;;;;;;6277192;22;20000;-78
2023/12/29 03:42:55;;;;;;;73.77;56.03;;;9.00;99.90;;;;;;6274595;22;20039;-83
2023/12/29 03:45:21;;;;;;;72.60;53.17;;;9.00;99.90;;;;;;6273956;22;20019;-82
2023/12/29 03:47:47;;;;;;;75.50;52.20;;;8.90;99.90;;;;;;6277629;22;20000;-81
2023/12/29 03:50:13;;;;;;;70.97;49.90;;;9.00;99.90;;;;;;6277560;22;20061;-82
2023/12/29 03:52:38;;;;;;;72.07;50.27;;;9.00;99.90;;;;;;6277298;22;20006;-83
2023/12/29 03:55:05;;;;;;;68.63;48.80;;;9.00;99.90;;;;;;6277565;22;20030;-81
2023/12/29 03:57:30;;;;;;;68.90;50.33;;;8.90;99.90;;;;;;6277082;22;19999;-83
2023/12/29 03:59:56;;;;;;;70.53;50.13;;;8.90;99.90;;;;;;6277669;22;20012;-82
2023/12/29 04:02:22;;;;;;;65.93;50.53;;;8.90;99.90;;;;;;6277622;22;19999;-81
2023/12/29 04:04:48;;;;;;;66.27;48.57;;;8.90;99.90;;;;;;6277956;22;20030;-72
2023/12/29 04:07:13;;;;;;;69.97;50.03;;;8.80;99.90;;;;;;6277348;22;20030;-72
2023/12/29 04:09:39;;;;;;;61.20;47.50;;;8.80;99.90;;;;;;6277312;22;20098;-70
2023/12/29 04:12:05;;;;;;;65.67;50.23;;;8.80;99.90;;;;;;6277587;22;20003;-69
2023/12/29 04:14:31;;;;;;;69.03;50.53;;;8.80;99.90;;;;;;6277246;22;20011;-69
2023/12/29 04:16:57;;;;;;;63.37;48.63;;;8.80;99.90;;;;;;6277312;22;20004;-69
2023/12/29 04:19:23;;;;;;;62.10;45.30;;;8.70;99.90;;;;;;6277448;22;20033;-72
2023/12/29 04:21:49;;;;;;;73.13;51.17;;;8.70;99.90;;;;;;6276980;22;20003;-72
2023/12/29 04:24:14;;;;;;;63.63;47.00;;;8.70;99.90;;;;;;6278105;22;20003;-84
2023/12/29 04:26:40;;;;;;;66.07;48.00;;;8.70;99.90;;;;;;6277514;22;20008;-80
2023/12/29 04:29:06;;;;;;;65.07;46.10;;;8.70;99.90;;;;;;6277645;22;20015;-79
2023/12/29 04:31:32;;;;;;;58.60;45.13;;;8.60;99.90;;;;;;6250707;22;20000;-83
2023/12/29 04:34:04;;;;;;;70.53;51.33;;;8.60;99.90;;;;;;6277683;22;20000;-82
2023/12/29 04:40:49;;;;;;;69.73;49.10;;;8.60;99.90;;;;;;6123698;23;20440;-82
2023/12/29 04:53:55;;;;;;;60.60;44.73;;;8.70;99.90;;;;;;5981551;24;20064;-82
2023/12/29 04:56:21;;;;;;;61.60;47.08;;;8.60;99.90;;;;;;5992018;23;20008;-82
2023/12/29 05:02:36;;;;;;;64.07;47.33;;;8.60;99.90;;;;;;6036904;23;20103;-83
2023/12/29 05:05:02;;;;;;;56.47;43.50;;;8.50;99.90;;;;;;6128402;23;20088;-82
2023/12/29 05:07:28;;;;;;;146.83;45.77;;;8.50;99.90;;;;;;6245493;22;20011;-82
2023/12/29 05:09:54;;;;;;;91.63;42.87;;;8.50;99.90;;;;;;6276928;22;20453;-81
2023/12/29 05:12:19;;;;;;;87.53;42.63;;;8.40;99.90;;;;;;6276854;22;19999;-82
2023/12/29 05:14:45;;;;;;;93.93;42.80;;;8.40;99.90;;;;;;6276825;22;20003;-82
2023/12/29 05:17:11;;;;;;;46.87;39.93;;;8.40;99.90;;;;;;6249620;22;20007;-82
2023/12/29 05:19:37;;;;;;;51.20;38.93;;;8.30;99.90;;;;;;6276680;22;20164;-82
2023/12/29 05:22:03;;;;;;;62.13;39.33;;;8.30;99.90;;;;;;6276546;22;20011;-81
2023/12/29 05:24:29;;;;;;;72.57;37.43;;;8.30;99.90;;;;;;6276354;22;20004;-83
2023/12/29 05:26:54;;;;;;;56.80;40.27;;;8.20;99.90;;;;;;6276581;22;20012;-81
2023/12/29 05:29:20;;;;;;;56.00;38.57;;;8.20;99.90;;;;;;6276390;22;20011;-81
2023/12/29 05:31:46;;;;;;;58.27;38.23;;;8.20;99.90;;;;;;6276376;22;20046;-82
2023/12/29 05:34:12;;;;;;;98.13;42.30;;;8.10;99.90;;;;;;6276136;22;20049;-82
2023/12/29 05:36:38;;;;;;;53.63;42.93;;;8.10;99.90;;;;;;6276379;22;20003;-82
2023/12/29 05:39:04;;;;;;;55.37;40.70;;;8.10;99.90;;;;;;6275966;22;20000;-82
2023/12/29 05:41:30;;;;;;;47.87;39.20;;;8.10;99.90;;;;;;6276491;22;20003;-82
2023/12/29 05:43:57;;;;;;;53.00;42.87;;;8.10;99.90;;;;;;6276327;22;20000;-82
2023/12/29 05:46:23;;;;;;;50.23;41.53;;;8.10;99.90;;;;;;6276289;22;20039;-81
2023/12/29 05:48:52;;;;;;;44.70;39.03;;;8.00;99.90;;;;;;6275965;22;20031;-82
2023/12/29 05:51:17;;;;;;;45.43;37.83;;;8.00;99.90;;;;;;6276114;22;20434;-82
2023/12/29 05:53:43;;;;;;;48.57;38.43;;;8.00;99.90;;;;;;6275955;22;20064;-82
2023/12/29 05:56:13;;;;;;;50.33;40.23;;;8.00;99.90;;;;;;6276294;22;20007;-82
2023/12/29 05:58:43;;;;;;;55.47;42.83;;;8.00;99.90;;;;;;6276193;22;20398;-81
2023/12/29 06:01:09;;;;;;;53.67;42.90;;;8.00;99.90;;;;;;6276222;22;20481;-81
2023/12/29 06:03:35;;;;;;;56.40;43.23;;;8.00;99.90;;;;;;6276962;22;20003;-82
2023/12/29 06:06:01;;;;;;;57.37;44.30;;;8.00;99.90;;;;;;6277291;22;20485;-82
2023/12/29 06:08:27;;;;;;;59.03;45.07;;;8.00;99.90;;;;;;6276875;22;20000;-81
2023/12/29 06:10:53;;;;;;;62.00;46.10;;;7.90;99.90;;;;;;6276847;22;20018;-81
2023/12/29 06:13:19;;;;;;;62.37;46.17;;;7.90;99.90;;;;;;6276930;22;20481;-82
2023/12/29 06:23:00;;;;;;;64.10;47.47;;;7.90;99.90;;;;;;6094342;23;20346;-82
2023/12/29 06:29:40;;;;;;;65.70;48.13;;;8.00;99.90;;;;;;6093968;23;20051;-81
2023/12/29 06:32:28;;;;;;;61.53;47.63;;;8.00;99.90;;;;;;6035815;23;20015;-82
2023/12/29 06:39:01;;;;;;;61.93;47.97;;;8.00;99.90;;;;;;6008099;23;20012;-82
2023/12/29 06:41:27;;;;;;;59.17;45.93;;;8.00;99.90;;;;;;6030566;23;20383;-82
2023/12/29 06:43:53;;;;;;;59.07;45.67;;;8.00;99.90;;;;;;6036872;23;20011;-81
2023/12/29 06:46:19;;;;;;;63.23;48.63;;;8.00;99.90;;;;;;6146589;22;20004;-82
2023/12/29 06:48:45;;;;;;;60.73;48.50;;;8.00;99.90;;;;;;6275674;22;20011;-82
2023/12/29 06:51:17;;;;;;;61.50;47.53;;;8.00;99.90;;;;;;6278362;22;20018;-83
2023/12/29 06:53:42;;;;;;;61.58;47.97;;;8.00;99.90;;;;;;6276028;22;20000;-82
2023/12/29 06:56:13;;;;;;;59.97;47.03;;;8.00;99.90;;;;;;6275649;22;20057;-82
2023/12/29 06:58:39;;;;;;;60.97;48.30;;;8.00;99.90;;;;;;6275906;22;20003;-82
2023/12/29 07:01:04;;;;;;;59.23;48.33;;;8.10;99.90;;;;;;6275556;22;20443;-80
2023/12/29 07:03:30;;;;;;;59.63;47.57;;;8.10;99.90;;;;;;6275054;22;20007;-82
2023/12/29 07:05:56;;;;;;;60.43;47.60;;;8.10;99.90;;;;;;6275923;22;20003;-82
2023/12/29 07:08:22;;;;;;;58.67;46.93;;;8.10;99.90;;;;;;6277519;22;20000;-81
2023/12/29 07:10:50;;;;;;;59.07;47.77;;;8.10;99.90;;;;;;6277607;22;20022;-82
2023/12/29 07:13:16;;;;;;;70.60;54.10;;;8.10;99.90;;;;;;6277704;22;20295;-81
2023/12/29 07:15:41;;;;;;;69.83;52.90;;;8.10;99.90;;;;;;6277934;22;20022;-83
2023/12/29 07:18:07;;;;;;;75.97;52.37;;;8.10;99.90;;;;;;6277755;22;20007;-82
2023/12/29 07:20:33;;;;;;;72.43;53.47;;;8.10;99.90;;;;;;6278263;22;20123;-72
2023/12/29 07:23:00;;;;;;;76.57;54.40;;;8.10;99.90;;;;;;6277713;22;20022;-71
2023/12/29 07:25:25;;;;;;;72.50;56.13;;;8.10;99.90;;;;;;6278188;22;20011;-71
2023/12/29 07:27:52;;;;;;;73.63;54.67;;;8.10;99.90;;;;;;6277261;22;20019;-71
2023/12/29 07:30:18;;;;;;;82.13;57.67;;;8.20;99.90;;;;;;6277194;22;20016;-70
2023/12/29 07:32:44;;;;;;;82.30;56.07;;;8.20;99.90;;;;;;6277144;22;20026;-72
2023/12/29 07:35:10;;;;;;;82.20;57.53;;;8.20;99.90;;;;;;6277210;22;19995;-72
2023/12/29 07:37:36;;;;;;;78.17;57.53;;;8.20;99.90;;;;;;6277132;22;20003;-73
2023/12/29 07:40:03;;;;;;;76.97;59.13;;;8.30;99.90;;;;;;6277610;22;20003;-82
2023/12/29 07:42:29;;;;;;;77.40;57.00;;;8.30;99.90;;;;;;6277705;22;20031;-81
2023/12/29 07:44:56;;;;;;;79.07;58.47;;;8.30;99.90;;;;;;6277777;22;20000;-81
2023/12/29 07:47:22;;;;;;;76.83;58.20;;;8.30;99.90;;;;;;6274820;22;20394;-79
2023/12/29 07:49:48;;;;;;;76.83;57.20;;;8.30;99.90;;;;;;6274746;22;20015;-78
2023/12/29 07:55:12;;;;;;;79.67;57.23;;;8.40;99.90;;;;;;6212995;23;20012;-83
2023/12/29 08:02:12;;;;;;;;;;;;;;;;;;;;;
2023/12/29 08:05:20;;;;;;;80.27;57.00;;;8.40;99.90;;;;;;6187753;23;20164;-82
2023/12/29 08:08:05;;;;;;;82.97;59.17;;;8.40;99.90;;;;;;6152626;23;20005;-83
2023/12/29 08:14:34;;;;;;;;;;;;;;;;;;;;;
2023/12/29 08:16:57;;;;;;;90.27;62.73;;;8.50;99.90;;;;;;6127659;23;20096;-80
2023/12/29 08:19:23;;;;;;;90.50;64.83;;;8.50;99.90;;;;;;6182265;23;20169;-83
2023/12/29 08:21:51;;;;;;;87.33;64.47;;;8.60;99.90;;;;;;6213562;23;20001;-80
2023/12/29 08:24:19;;;;;;;92.73;64.60;;;8.60;99.90;;;;;;6253673;22;20095;-82
2023/12/29 08:26:46;;;;;;;89.90;64.43;;;8.60;99.90;;;;;;6273290;22;20346;-80
2023/12/29 08:29:13;;;;;;;90.57;63.47;;;8.70;99.90;;;;;;6274135;22;20339;-80
2023/12/29 08:31:38;;;;;;;94.77;62.53;;;8.70;99.90;;;;;;6276668;22;20308;-81
2023/12/29 08:34:04;;;;;;;87.13;61.53;;;8.70;99.90;;;;;;6249716;22;20003;-79
2023/12/29 08:36:30;;;;;;;84.93;61.17;;;8.70;99.90;;;;;;6276801;22;20011;-81
2023/12/29 08:38:56;;;;;;;89.80;62.60;;;8.80;99.90;;;;;;6276432;22;19999;-81
2023/12/29 08:41:22;;;;;;;86.23;61.37;;;8.80;99.90;;;;;;6276303;22;20430;-79
2023/12/29 08:43:48;;;;;;;87.90;63.40;;;8.80;99.90;;;;;;6276432;22;20034;-80
2023/12/29 08:46:14;;;;;;;91.93;64.73;;;8.80;99.90;;;;;;6276570;22;20010;-79
2023/12/29 08:48:40;;;;;;;95.70;65.87;;;8.80;99.90;;;;;;6277024;22;20022;-81
2023/12/29 08:51:06;;;;;;;93.80;64.53;;;8.90;99.90;;;;;;6276566;22;20019;-81
2023/12/29 08:53:35;;;;;;;88.83;65.80;;;8.90;99.90;;;;;;6276223;22;20423;-82
2023/12/29 08:56:02;;;;;;;97.23;67.20;;;8.90;99.90;;;;;;6276165;22;20008;-82
2023/12/29 08:58:27;;;;;;;96.40;68.13;;;8.90;99.90;;;;;;6276592;22;20000;-82
2023/12/29 09:00:54;;;;;;;102.53;70.93;;;9.00;99.90;;;;;;6276709;22;20058;-81
2023/12/29 09:03:20;;;;;;;97.80;70.57;;;9.00;99.90;;;;;;6276345;22;19996;-80
2023/12/29 09:05:45;;;;;;;104.53;73.50;;;9.00;99.90;;;;;;6275946;22;20007;-78
2023/12/29 09:08:11;;;;;;;104.57;72.13;;;9.00;99.90;;;;;;6276164;22;19999;-81
2023/12/29 09:10:38;;;;;;;104.80;74.37;;;9.10;99.90;;;;;;6275673;22;20054;-81
2023/12/29 09:13:04;;;;;;;101.70;73.53;;;9.10;99.90;;;;;;6249728;22;20010;-81
2023/12/29 09:15:30;;;;;;;105.20;74.10;;;9.10;99.90;;;;;;6276178;22;20069;-81
2023/12/29 09:17:56;;;;;;;105.87;74.77;;;9.10;99.90;;;;;;6276549;22;20427;-81
2023/12/29 09:20:22;;;;;;;106.03;73.07;;;9.10;99.90;;;;;;6277347;22;20334;-81
2023/12/29 09:22:48;;;;;;;101.83;72.43;;;9.20;99.90;;;;;;6249609;22;20059;-79
2023/12/29 09:25:14;;;;;;;103.30;73.60;;;9.20;99.90;;;;;;6277119;22;20031;-81
2023/12/29 09:27:40;;;;;;;108.07;73.20;;;9.20;99.90;;;;;;6271920;22;20089;-78
2023/12/29 09:30:06;;;;;;;104.80;74.03;;;9.20;99.90;;;;;;6218446;23;20305;-78
2023/12/29 09:32:35;;;;;;;105.90;74.53;;;9.20;99.90;;;;;;6246181;23;20024;-79
2023/12/29 09:35:01;;;;;;;111.00;74.43;;;9.20;99.90;;;;;;6246012;23;19996;-80
2023/12/29 09:40:37;;;;;;;105.20;72.93;;;9.20;99.90;;;;;;6276784;22;20010;-80
2023/12/29 09:43:38;;;;;;;103.20;73.00;;;9.30;99.90;;;;;;6276567;22;20390;-80
2023/12/29 09:46:52;;;;;;;107.93;72.17;;;9.30;99.90;;;;;;6260423;22;20070;-79
2023/12/29 09:49:24;;;;;;;;;;;9.30;99.90;;;;;;6182879;23;20342;-70
2023/12/29 09:51:56;;;;;;;104.90;71.50;;;9.30;99.90;;;;;;6182685;23;20227;-70
2023/12/29 09:54:22;;;;;;;104.63;71.90;;;9.30;99.90;;;;;;6182128;23;20008;-70
2023/12/29 09:57:28;;;;;;;109.20;77.97;;;9.30;99.90;;;;;;6181936;23;20043;-71
2023/12/29 09:59:57;;;;;;;111.63;77.07;;;9.30;99.90;;;;;;6182318;23;20336;-70
2023/12/29 10:02:23;;;;;;;99.50;72.50;;;9.40;99.90;;;;;;6182733;23;20324;-70
2023/12/29 10:04:49;;;;;;;99.93;72.67;;;9.30;99.90;;;;;;6272160;22;20007;-68
2023/12/29 10:07:28;;;;;;;211.27;144.90;;;9.40;99.90;;;;;;6274950;22;20365;-69
2023/12/29 10:09:57;;;;;;;94.93;71.43;;;9.40;99.90;;;;;;6274320;22;20019;-70
2023/12/29 10:12:34;;;;;;;90.37;65.60;;;9.40;99.90;;;;;;6275177;22;20400;-70
2023/12/29 10:15:11;;;;;;;89.27;68.17;;;9.40;99.90;;;;;;6246359;22;20333;-70
2023/12/29 10:18:02;;;;;;;91.73;66.97;;;9.40;99.90;;;;;;6272900;22;20326;-70
2023/12/29 10:20:57;;;;;;;95.97;65.90;;;9.40;99.90;;;;;;6273549;22;20364;-70
2023/12/29 10:23:34;;;;;;;88.87;66.73;;;9.40;99.90;;;;;;6274766;22;20333;-70
2023/12/29 10:26:00;;;;;;;94.30;70.53;;;9.50;99.90;;;;;;6274722;22;20516;-70
2023/12/29 10:28:26;;;;;;;97.23;70.23;;;9.50;99.90;;;;;;6274350;22;20011;-70
2023/12/29 10:30:52;;;;;;;99.83;70.50;;;9.40;99.90;;;;;;6275728;22;20115;-70
2023/12/29 10:33:29;;;;;;;97.07;70.23;;;9.40;99.90;;;;;;6276198;22;20006;-70
2023/12/29 10:36:03;;;;;;;106.23;73.33;;;9.50;99.90;;;;;;6248934;22;20011;-70
2023/12/29 10:38:31;;;;;;;96.97;75.60;;;9.50;99.90;;;;;;6275981;22;20004;-70
2023/12/29 10:41:16;;;;;;;103.30;75.03;;;9.50;99.90;;;;;;6276635;22;19999;-70
2023/12/29 10:43:58;;;;;;;90.80;69.30;;;9.50;99.90;;;;;;6278011;22;19999;-71
2023/12/29 10:46:25;;;;;;;89.80;69.43;;;9.50;99.90;;;;;;6278528;22;20000;-70
2023/12/29 10:48:51;;;;;;;88.63;66.87;;;9.50;99.90;;;;;;6278021;22;20330;-70
2023/12/29 10:51:27;;;;;;;94.47;69.43;;;9.50;99.90;;;;;;6278260;22;20004;-70
2023/12/29 10:53:56;;;;;;;96.63;72.50;;;9.50;99.90;;;;;;6278225;22;20031;-72
2023/12/29 10:56:23;;;;;;;97.03;72.50;;;9.60;99.90;;;;;;6278182;22;20030;-71
2023/12/29 10:59:03;;;;;;;99.50;73.67;;;9.50;99.90;;;;;;6277497;22;20003;-71
2023/12/29 11:01:36;;;;;;;104.67;74.70;;;9.50;99.90;;;;;;6278344;22;20033;-70
2023/12/29 11:04:04;;;;;;;104.97;75.00;;;9.50;99.90;;;;;;6278442;22;20448;-71
2023/12/29 11:06:40;;;;;;;119.43;78.97;;;9.60;99.90;;;;;;6278284;22;20000;-72
2023/12/29 11:09:10;;;;;;;113.17;80.67;;;9.50;99.90;;;;;;6278410;22;20081;-71
2023/12/29 11:12:33;;;;;;;117.47;76.83;;;9.50;99.90;;;;;;6277944;22;20089;-71
2023/12/29 11:15:02;;;;;;;104.55;73.82;;;9.50;99.90;;;;;;6162104;23;20079;-70
2023/12/29 11:17:30;;;;;;;106.00;76.67;;;9.60;99.90;;;;;;6274431;22;20333;-72
2023/12/29 11:20:17;;;;;;;98.43;73.47;;;9.60;99.90;;;;;;6277879;22;20067;-72
2023/12/29 11:22:55;;;;;;;107.33;77.40;;;9.60;99.90;;;;;;6277937;22;20368;-72
2023/12/29 11:28:49;;;;;;;105.63;76.83;;;9.60;99.90;;;;;;6223907;22;20060;-71
2023/12/29 11:34:42;;;;;;;106.00;74.13;;;9.70;99.90;;;;;;6223624;22;20019;-70
2023/12/29 11:37:43;;;;;;;112.60;76.03;;;9.70;99.90;;;;;;6245900;22;20357;-71
2023/12/29 11:40:45;;;;;;;106.57;74.90;;;9.70;99.90;;;;;;6250994;22;20026;-71
2023/12/29 11:43:16;;;;;;;109.47;74.93;;;9.70;99.90;;;;;;6276995;22;20014;-70
2023/12/29 11:45:43;;;;;;;111.53;75.27;;;9.80;99.90;;;;;;6277585;22;20276;-71
2023/12/29 11:48:11;;;;;;;110.97;74.32;;;9.80;99.90;;;;;;6277677;22;20368;-70
2023/12/29 11:50:40;;;;;;;106.93;75.23;;;9.80;99.90;;;;;;6277154;22;20018;-70
2023/12/29 11:53:06;;;;;;;113.40;78.87;;;9.80;99.90;;;;;;6250506;22;20397;-70
2023/12/29 11:55:39;;;;;;;111.43;80.20;;;9.90;99.90;;;;;;6277189;22;20334;-70
2023/12/29 11:58:24;;;;;;;116.40;79.00;;;9.90;99.90;;;;;;6276363;22;20433;-70
2023/12/29 12:00:50;;;;;;;108.23;78.80;;;9.90;99.90;;;;;;6277190;22;20000;-70
2023/12/29 12:03:26;;;;;;;113.23;78.27;;;9.90;99.90;;;;;;6276716;22;19999;-70
2023/12/29 12:05:54;;;;;;;108.63;74.90;;;9.90;99.90;;;;;;6276134;22;20075;-70
2023/12/29 12:08:37;;;;;;;101.47;72.75;;;10.00;99.90;;;;;;6276771;22;20014;-70
2023/12/29 12:11:34;;;;;;;109.95;76.57;;;10.00;99.90;;;;;;6277207;22;20107;-70
2023/12/29 12:13:59;;;;;;;101.68;73.07;;;10.00;99.90;;;;;;6274312;22;20000;-70
2023/12/29 12:16:49;;;;;;;102.20;73.67;;;10.00;99.90;;;;;;6273667;22;20004;-70
2023/12/29 12:19:16;;;;;;;106.77;75.27;;;10.00;99.90;;;;;;6276491;22;20057;-71
2023/12/29 12:21:47;;;;;;;108.97;77.33;;;10.00;99.90;;;;;;6250038;22;20318;-70
2023/12/29 12:24:14;;;;;;;100.78;73.57;;;10.00;99.90;;;;;;6276960;22;20004;-71
2023/12/29 12:26:40;;;;;;;105.55;76.30;;;10.10;99.90;;;;;;6277164;22;20441;-70
2023/12/29 12:29:07;;;;;;;110.90;77.07;;;10.10;99.90;;;;;;6276785;22;20019;-70
2023/12/29 12:31:33;;;;;;;106.32;77.22;;;10.10;99.90;;;;;;6277305;22;19999;-70
2023/12/29 12:34:02;;;;;;;105.33;78.17;;;10.10;99.90;;;;;;6277712;22;20000;-70
2023/12/29 12:36:28;;;;;;;102.50;77.28;;;10.10;99.90;;;;;;6277618;22;20004;-70
2023/12/29 12:38:56;;;;;;;106.93;76.95;;;10.20;99.90;;;;;;6274608;22;20035;-70
2023/12/29 12:41:43;;;;;;;110.43;78.28;;;10.10;99.90;;;;;;6247118;22;20654;-70
2023/12/29 12:48:10;;;;;;;107.97;77.45;;;10.10;99.90;;;;;;6152648;23;20005;-70
2023/12/29 12:51:00;;;;;;;108.00;77.63;;;10.10;99.90;;;;;;6152937;23;20017;-70
2023/12/29 12:54:14;;;;;;;108.37;81.57;;;10.10;99.90;;;;;;6182117;23;20450;-71
2023/12/29 13:06:23;;;;;;;108.97;80.20;;;10.20;99.90;;;;;;5953637;23;20077;-71
2023/12/29 13:08:51;;;;;;;110.57;81.47;;;10.10;99.90;;;;;;6153036;23;20437;-71
2023/12/29 13:11:25;;;;;;;108.23;79.90;;;10.20;99.90;;;;;;6207865;22;20065;-69
2023/12/29 13:13:56;;;;;;;103.90;74.70;;;10.20;99.90;;;;;;6276671;22;20329;-69
2023/12/29 13:16:50;;;;;;;108.70;78.90;;;10.20;99.90;;;;;;6276148;22;20042;-70
2023/12/29 13:19:18;;;;;;;107.05;74.75;;;10.20;99.90;;;;;;6272167;22;20418;-69
2023/12/29 13:21:47;;;;;;;103.28;75.22;;;10.20;99.90;;;;;;6273420;22;20007;-70
2023/12/29 13:24:15;;;;;;;105.13;75.77;;;10.20;99.90;;;;;;6273186;22;20376;-71
2023/12/29 13:26:42;;;;;;;107.82;75.55;;;10.20;99.90;;;;;;6275442;22;20062;-71
2023/12/29 13:29:08;;;;;;;110.57;79.15;;;10.20;99.90;;;;;;6275893;22;20015;-71
2023/12/29 13:31:35;;;;;;;106.97;76.15;;;10.30;99.90;;;;;;6275660;22;19999;-72
2023/12/29 13:34:11;;;;;;;100.80;75.30;;;10.20;99.90;;;;;;6276143;22;20004;-71
2023/12/29 13:37:07;;;;;;;101.70;74.30;;;10.20;99.90;;;;;;6249001;22;20307;-70
2023/12/29 13:39:42;;;;;;;102.40;74.55;;;10.20;99.90;;;;;;6276124;22;20000;-70
2023/12/29 13:42:10;;;;;;;99.95;74.82;;;10.20;99.90;;;;;;6275802;22;20033;-70
2023/12/29 13:44:41;;;;;;;106.55;78.70;;;10.20;99.90;;;;;;6276105;22;20441;-70
2023/12/29 13:47:07;;;;;;;107.22;80.22;;;10.20;99.90;;;;;;6275779;22;19999;-70
2023/12/29 13:49:36;;;;;;;103.80;80.00;;;10.20;99.90;;;;;;6275977;22;20007;-70
2023/12/29 13:52:04;;;;;;;104.25;77.63;;;10.20;99.90;;;;;;6276212;22;20030;-70
2023/12/29 13:54:29;;;;;;;102.80;77.63;;;10.20;99.90;;;;;;6275724;22;20002;-70
2023/12/29 13:56:56;;;;;;;108.40;79.17;;;10.20;99.90;;;;;;6275791;22;20074;-69
2023/12/29 13:59:34;;;;;;;105.07;78.32;;;10.20;99.90;;;;;;6274997;22;20676;-69
2023/12/29 14:02:21;;;;;;;106.82;78.65;;;10.20;99.90;;;;;;6276200;22;20006;-69
2023/12/29 14:04:47;;;;;;;103.43;76.70;;;10.20;99.90;;;;;;6275609;22;20563;-69
2023/12/29 14:07:14;;;;;;;100.93;76.83;;;10.20;99.90;;;;;;6276338;22;20031;-70
2023/12/29 14:09:41;;;;;;;105.78;77.00;;;10.20;99.90;;;;;;6277203;22;20307;-70
2023/12/29 14:12:06;;;;;;;107.68;78.60;;;10.20;99.90;;;;;;6276734;22;20011;-69
2023/12/29 14:14:32;;;;;;;110.63;79.80;;;10.20;99.90;;;;;;6276568;22;19999;-70
2023/12/29 14:17:22;;;;;;;114.95;78.18;;;10.20;99.90;;;;;;6276763;22;20074;-71
2023/12/29 14:23:05;;;;;;;115.65;77.35;;;10.20;99.90;;;;;;6211792;23;20032;-71
2023/12/29 14:26:33;;;;;;;107.53;79.57;;;10.20;99.90;;;;;;6212137;23;20011;-71
2023/12/29 14:29:25;;;;;;;111.33;79.90;;;10.20;99.90;;;;;;6115597;23;20060;-71
2023/12/29 14:32:18;;;;;;;101.40;77.47;;;10.20;99.90;;;;;;6159753;22;20008;-71
2023/12/29 14:35:10;;;;;;;103.05;78.72;;;10.20;99.90;;;;;;6275752;22;20299;-70
2023/12/29 14:38:00;;;;;;;106.03;81.40;;;10.20;99.90;;;;;;6275143;22;20000;-71
2023/12/29 14:40:30;;;;;;;107.50;78.93;;;10.20;99.90;;;;;;6272537;22;20222;-71
2023/12/29 14:42:58;;;;;;;105.00;77.03;;;10.20;99.90;;;;;;6274753;22;20000;-71
2023/12/29 14:45:24;;;;;;;112.82;80.45;;;10.20;99.90;;;;;;6275835;22;20389;-70
2023/12/29 14:47:50;;;;;;;117.30;85.78;;;10.20;99.90;;;;;;6275887;22;20000;-70
2023/12/29 14:50:16;;;;;;;108.22;82.20;;;10.20;99.90;;;;;;6275211;22;20082;-70
2023/12/29 14:52:42;;;;;;;112.97;84.85;;;10.20;99.90;;;;;;6274920;22;19996;-70